sensor_id;sensor_type;location;lat;lon;timestamp;P1;durP1;ratioP1;P2;durP2;ratioP2
73693;SDS011;61997;53.974;11.670;2023-10-13T00:01:46;6.10;;;3.28;;
73693;SDS011;61997;53.974;11.670;2023-10-13T00:04:12;7.65;;;3.53;;
73693;SDS011;61997;53.974;11.670;2023-10-13T00:06:38;5.53;;;3.30;;
73693;SDS011;61997;53.974;11.670;2023-10-13T00:09:04;7.30;;;3.55;;
73693;SDS011;61997;53.974;11.670;2023-10-13T00:11:29;7.75;;;3.78;;
73693;SDS011;61997;53.974;11.670;2023-10-13T00:13:55;5.32;;;3.25;;
73693;SDS011;61997;53.974;11.670;2023-10-13T00:16:21;5.50;;;3.20;;
73693;SDS011;61997;53.974;11.670;2023-10-13T00:18:52;5.90;;;3.40;;
73693;SDS011;61997;53.974;11.670;2023-10-13T00:21:23;10.05;;;3.90;;
73693;SDS011;61997;53.974;11.670;2023-10-13T00:23:58;7.28;;;3.40;;
73693;SDS011;61997;53.974;11.670;2023-10-13T00:26:27;5.95;;;2.92;;
73693;SDS011;61997;53.974;11.670;2023-10-13T00:28:55;8.27;;;3.97;;
73693;SDS011;61997;53.974;11.670;2023-10-13T00:31:50;7.50;;;3.80;;
73693;SDS011;61997;53.974;11.670;2023-10-13T00:34:17;5.30;;;3.00;;
73693;SDS011;61997;53.974;11.670;2023-10-13T00:36:53;6.80;;;3.53;;
73693;SDS011;61997;53.974;11.670;2023-10-13T00:39:37;7.65;;;3.88;;
73693;SDS011;61997;53.974;11.670;2023-10-13T00:42:11;7.15;;;3.80;;
73693;SDS011;61997;53.974;11.670;2023-10-13T00:44:45;6.90;;;3.75;;
73693;SDS011;61997;53.974;11.670;2023-10-13T00:47:17;7.20;;;3.55;;
73693;SDS011;61997;53.974;11.670;2023-10-13T00:50:03;8.23;;;3.70;;
73693;SDS011;61997;53.974;11.670;2023-10-13T00:52:30;5.95;;;3.35;;
73693;SDS011;61997;53.974;11.670;2023-10-13T00:54:57;6.97;;;3.45;;
73693;SDS011;61997;53.974;11.670;2023-10-13T00:57:25;7.32;;;3.85;;
73693;SDS011;61997;53.974;11.670;2023-10-13T00:59:55;8.75;;;4.20;;
73693;SDS011;61997;53.974;11.670;2023-10-13T01:02:25;8.52;;;3.83;;
73693;SDS011;61997;53.974;11.670;2023-10-13T01:05:05;7.47;;;3.88;;
73693;SDS011;61997;53.974;11.670;2023-10-13T01:07:35;8.95;;;4.10;;
73693;SDS011;61997;53.974;11.670;2023-10-13T01:10:02;6.82;;;3.47;;
73693;SDS011;61997;53.974;11.670;2023-10-13T01:12:38;8.68;;;3.88;;
73693;SDS011;61997;53.974;11.670;2023-10-13T01:15:03;7.45;;;3.45;;
73693;SDS011;61997;53.974;11.670;2023-10-13T01:17:32;9.95;;;4.25;;
73693;SDS011;61997;53.974;11.670;2023-10-13T01:19:58;7.35;;;3.72;;
73693;SDS011;61997;53.974;11.670;2023-10-13T01:22:24;7.07;;;3.63;;
73693;SDS011;61997;53.974;11.670;2023-10-13T01:24:50;6.65;;;3.63;;
73693;SDS011;61997;53.974;11.670;2023-10-13T01:27:16;9.63;;;4.50;;
73693;SDS011;61997;53.974;11.670;2023-10-13T01:29:48;7.57;;;4.65;;
73693;SDS011;61997;53.974;11.670;2023-10-13T01:32:17;6.35;;;3.35;;
73693;SDS011;61997;53.974;11.670;2023-10-13T01:34:43;7.07;;;4.18;;
73693;SDS011;61997;53.974;11.670;2023-10-13T01:37:14;9.50;;;4.82;;
73693;SDS011;61997;53.974;11.670;2023-10-13T01:39:41;7.72;;;4.07;;
73693;SDS011;61997;53.974;11.670;2023-10-13T01:42:06;6.22;;;4.05;;
73693;SDS011;61997;53.974;11.670;2023-10-13T01:44:32;7.07;;;3.88;;
73693;SDS011;61997;53.974;11.670;2023-10-13T01:46:58;10.50;;;4.32;;
73693;SDS011;61997;53.974;11.670;2023-10-13T01:49:31;8.75;;;4.32;;
73693;SDS011;61997;53.974;11.670;2023-10-13T01:52:06;6.97;;;3.75;;
73693;SDS011;61997;53.974;11.670;2023-10-13T01:54:33;6.18;;;3.45;;
73693;SDS011;61997;53.974;11.670;2023-10-13T01:56:58;6.88;;;4.15;;
73693;SDS011;61997;53.974;11.670;2023-10-13T01:59:25;6.53;;;3.97;;
73693;SDS011;61997;53.974;11.670;2023-10-13T02:01:51;7.05;;;3.90;;
73693;SDS011;61997;53.974;11.670;2023-10-13T02:06:46;6.70;;;3.90;;
73693;SDS011;61997;53.974;11.670;2023-10-13T02:09:12;7.05;;;3.42;;
73693;SDS011;61997;53.974;11.670;2023-10-13T02:11:51;8.10;;;4.35;;
73693;SDS011;61997;53.974;11.670;2023-10-13T02:14:20;7.32;;;3.92;;
73693;SDS011;61997;53.974;11.670;2023-10-13T02:16:50;7.10;;;3.55;;
73693;SDS011;61997;53.974;11.670;2023-10-13T02:19:37;6.95;;;3.60;;
73693;SDS011;61997;53.974;11.670;2023-10-13T02:22:10;6.63;;;3.60;;
73693;SDS011;61997;53.974;11.670;2023-10-13T02:24:51;7.07;;;3.83;;
73693;SDS011;61997;53.974;11.670;2023-10-13T02:27:17;7.15;;;4.03;;
73693;SDS011;61997;53.974;11.670;2023-10-13T02:29:48;6.20;;;3.30;;
73693;SDS011;61997;53.974;11.670;2023-10-13T02:32:14;7.53;;;3.72;;
73693;SDS011;61997;53.974;11.670;2023-10-13T02:34:46;7.97;;;3.80;;
73693;SDS011;61997;53.974;11.670;2023-10-13T02:37:11;6.28;;;3.63;;
73693;SDS011;61997;53.974;11.670;2023-10-13T02:39:38;6.88;;;3.70;;
73693;SDS011;61997;53.974;11.670;2023-10-13T02:42:07;7.55;;;3.75;;
73693;SDS011;61997;53.974;11.670;2023-10-13T02:44:34;6.68;;;3.80;;
73693;SDS011;61997;53.974;11.670;2023-10-13T02:47:01;6.85;;;4.10;;
73693;SDS011;61997;53.974;11.670;2023-10-13T02:49:27;6.63;;;3.50;;
73693;SDS011;61997;53.974;11.670;2023-10-13T02:51:59;7.35;;;3.80;;
73693;SDS011;61997;53.974;11.670;2023-10-13T02:54:29;7.20;;;3.72;;
73693;SDS011;61997;53.974;11.670;2023-10-13T02:57:04;7.63;;;3.50;;
73693;SDS011;61997;53.974;11.670;2023-10-13T02:59:30;8.88;;;3.72;;
73693;SDS011;61997;53.974;11.670;2023-10-13T03:02:02;9.40;;;4.20;;
73693;SDS011;61997;53.974;11.670;2023-10-13T03:04:40;8.30;;;4.20;;
73693;SDS011;61997;53.974;11.670;2023-10-13T03:07:05;7.03;;;3.47;;
73693;SDS011;61997;53.974;11.670;2023-10-13T03:09:31;6.53;;;3.40;;
73693;SDS011;61997;53.974;11.670;2023-10-13T03:12:02;5.85;;;3.28;;
73693;SDS011;61997;53.974;11.670;2023-10-13T03:14:29;6.47;;;3.50;;
73693;SDS011;61997;53.974;11.670;2023-10-13T03:16:58;6.43;;;3.55;;
73693;SDS011;61997;53.974;11.670;2023-10-13T03:19:30;9.13;;;3.72;;
73693;SDS011;61997;53.974;11.670;2023-10-13T03:22:09;6.72;;;3.72;;
73693;SDS011;61997;53.974;11.670;2023-10-13T03:24:36;6.65;;;3.30;;
73693;SDS011;61997;53.974;11.670;2023-10-13T03:27:09;8.93;;;3.60;;
73693;SDS011;61997;53.974;11.670;2023-10-13T03:29:37;7.28;;;3.60;;
73693;SDS011;61997;53.974;11.670;2023-10-13T03:32:12;6.63;;;3.35;;
73693;SDS011;61997;53.974;11.670;2023-10-13T03:34:40;6.57;;;3.45;;
73693;SDS011;61997;53.974;11.670;2023-10-13T03:37:18;6.05;;;3.20;;
73693;SDS011;61997;53.974;11.670;2023-10-13T03:39:49;6.05;;;3.33;;
73693;SDS011;61997;53.974;11.670;2023-10-13T03:42:16;6.75;;;3.70;;
73693;SDS011;61997;53.974;11.670;2023-10-13T03:44:46;7.75;;;3.67;;
73693;SDS011;61997;53.974;11.670;2023-10-13T03:47:12;8.65;;;3.80;;
73693;SDS011;61997;53.974;11.670;2023-10-13T03:49:44;6.72;;;3.80;;
73693;SDS011;61997;53.974;11.670;2023-10-13T03:52:10;7.63;;;3.85;;
73693;SDS011;61997;53.974;11.670;2023-10-13T03:54:39;6.47;;;3.22;;
73693;SDS011;61997;53.974;11.670;2023-10-13T03:57:06;5.53;;;2.95;;
73693;SDS011;61997;53.974;11.670;2023-10-13T03:59:36;8.02;;;3.50;;
73693;SDS011;61997;53.974;11.670;2023-10-13T04:02:01;6.32;;;3.30;;
73693;SDS011;61997;53.974;11.670;2023-10-13T04:04:31;7.25;;;3.42;;
73693;SDS011;61997;53.974;11.670;2023-10-13T04:07:02;7.65;;;3.63;;
73693;SDS011;61997;53.974;11.670;2023-10-13T04:09:30;7.50;;;3.63;;
73693;SDS011;61997;53.974;11.670;2023-10-13T04:11:59;8.00;;;3.30;;
73693;SDS011;61997;53.974;11.670;2023-10-13T04:14:32;7.82;;;3.15;;
73693;SDS011;61997;53.974;11.670;2023-10-13T04:17:19;5.72;;;3.58;;
73693;SDS011;61997;53.974;11.670;2023-10-13T04:19:51;7.85;;;3.08;;
73693;SDS011;61997;53.974;11.670;2023-10-13T04:22:39;7.57;;;3.30;;
73693;SDS011;61997;53.974;11.670;2023-10-13T04:25:20;7.70;;;3.58;;
73693;SDS011;61997;53.974;11.670;2023-10-13T04:28:05;5.70;;;3.35;;
73693;SDS011;61997;53.974;11.670;2023-10-13T04:30:38;7.80;;;3.47;;
73693;SDS011;61997;53.974;11.670;2023-10-13T04:33:31;7.15;;;3.13;;
73693;SDS011;61997;53.974;11.670;2023-10-13T04:36:00;6.93;;;3.35;;
73693;SDS011;61997;53.974;11.670;2023-10-13T04:38:26;7.55;;;3.60;;
73693;SDS011;61997;53.974;11.670;2023-10-13T04:40:59;7.30;;;3.33;;
73693;SDS011;61997;53.974;11.670;2023-10-13T04:43:26;5.72;;;2.97;;
73693;SDS011;61997;53.974;11.670;2023-10-13T04:45:59;7.05;;;3.58;;
73693;SDS011;61997;53.974;11.670;2023-10-13T04:48:39;6.57;;;3.10;;
73693;SDS011;61997;53.974;11.670;2023-10-13T04:51:04;6.47;;;3.20;;
73693;SDS011;61997;53.974;11.670;2023-10-13T04:54:08;7.85;;;3.13;;
73693;SDS011;61997;53.974;11.670;2023-10-13T04:56:50;5.93;;;3.33;;
73693;SDS011;61997;53.974;11.670;2023-10-13T04:59:25;6.25;;;3.40;;
73693;SDS011;61997;53.974;11.670;2023-10-13T05:02:08;7.72;;;3.40;;
73693;SDS011;61997;53.974;11.670;2023-10-13T05:04:52;5.50;;;3.15;;
73693;SDS011;61997;53.974;11.670;2023-10-13T05:07:30;6.13;;;3.25;;
73693;SDS011;61997;53.974;11.670;2023-10-13T05:10:13;6.50;;;3.72;;
73693;SDS011;61997;53.974;11.670;2023-10-13T05:12:57;6.32;;;3.38;;
73693;SDS011;61997;53.974;11.670;2023-10-13T05:15:46;4.93;;;2.78;;
73693;SDS011;61997;53.974;11.670;2023-10-13T05:18:31;5.70;;;2.92;;
73693;SDS011;61997;53.974;11.670;2023-10-13T05:21:15;6.07;;;3.03;;
73693;SDS011;61997;53.974;11.670;2023-10-13T05:23:59;5.32;;;3.05;;
73693;SDS011;61997;53.974;11.670;2023-10-13T05:26:52;6.00;;;3.00;;
73693;SDS011;61997;53.974;11.670;2023-10-13T05:29:40;6.18;;;3.03;;
73693;SDS011;61997;53.974;11.670;2023-10-13T05:32:24;6.10;;;2.63;;
73693;SDS011;61997;53.974;11.670;2023-10-13T05:35:08;7.00;;;3.33;;
73693;SDS011;61997;53.974;11.670;2023-10-13T05:37:52;5.30;;;2.97;;
73693;SDS011;61997;53.974;11.670;2023-10-13T05:40:36;6.15;;;2.78;;
73693;SDS011;61997;53.974;11.670;2023-10-13T05:43:20;5.38;;;2.80;;
73693;SDS011;61997;53.974;11.670;2023-10-13T05:46:04;5.63;;;2.92;;
73693;SDS011;61997;53.974;11.670;2023-10-13T05:49:01;6.15;;;2.75;;
73693;SDS011;61997;53.974;11.670;2023-10-13T05:51:45;5.40;;;3.30;;
73693;SDS011;61997;53.974;11.670;2023-10-13T05:54:33;7.07;;;2.78;;
73693;SDS011;61997;53.974;11.670;2023-10-13T05:57:17;5.50;;;2.75;;
73693;SDS011;61997;53.974;11.670;2023-10-13T06:00:01;5.97;;;2.90;;
73693;SDS011;61997;53.974;11.670;2023-10-13T06:02:46;5.05;;;2.63;;
73693;SDS011;61997;53.974;11.670;2023-10-13T06:05:29;4.72;;;2.35;;
73693;SDS011;61997;53.974;11.670;2023-10-13T06:08:13;5.22;;;2.55;;
73693;SDS011;61997;53.974;11.670;2023-10-13T06:11:01;5.45;;;2.70;;
73693;SDS011;61997;53.974;11.670;2023-10-13T06:13:46;5.32;;;2.63;;
73693;SDS011;61997;53.974;11.670;2023-10-13T06:16:30;5.97;;;2.70;;
73693;SDS011;61997;53.974;11.670;2023-10-13T06:19:19;5.50;;;2.85;;
73693;SDS011;61997;53.974;11.670;2023-10-13T06:22:03;6.40;;;3.33;;
73693;SDS011;61997;53.974;11.670;2023-10-13T06:24:47;6.07;;;2.70;;
73693;SDS011;61997;53.974;11.670;2023-10-13T06:27:31;5.90;;;2.83;;
73693;SDS011;61997;53.974;11.670;2023-10-13T06:30:14;5.82;;;2.60;;
73693;SDS011;61997;53.974;11.670;2023-10-13T06:32:42;5.30;;;3.03;;
73693;SDS011;61997;53.974;11.670;2023-10-13T06:35:07;5.03;;;2.55;;
73693;SDS011;61997;53.974;11.670;2023-10-13T06:37:33;5.45;;;2.70;;
73693;SDS011;61997;53.974;11.670;2023-10-13T06:40:08;4.07;;;2.35;;
73693;SDS011;61997;53.974;11.670;2023-10-13T06:42:53;5.07;;;2.50;;
73693;SDS011;61997;53.974;11.670;2023-10-13T06:45:20;6.18;;;2.40;;
73693;SDS011;61997;53.974;11.670;2023-10-13T06:47:47;3.83;;;2.45;;
73693;SDS011;61997;53.974;11.670;2023-10-13T06:50:14;4.78;;;2.40;;
73693;SDS011;61997;53.974;11.670;2023-10-13T06:52:44;3.95;;;2.40;;
73693;SDS011;61997;53.974;11.670;2023-10-13T06:55:10;5.82;;;2.60;;
73693;SDS011;61997;53.974;11.670;2023-10-13T06:58:00;3.90;;;2.60;;
73693;SDS011;61997;53.974;11.670;2023-10-13T07:00:26;3.72;;;2.22;;
73693;SDS011;61997;53.974;11.670;2023-10-13T07:03:03;5.28;;;2.30;;
73693;SDS011;61997;53.974;11.670;2023-10-13T07:05:36;4.38;;;2.42;;
73693;SDS011;61997;53.974;11.670;2023-10-13T07:08:06;5.60;;;2.38;;
73693;SDS011;61997;53.974;11.670;2023-10-13T07:10:32;3.42;;;2.20;;
73693;SDS011;61997;53.974;11.670;2023-10-13T07:13:10;3.78;;;2.20;;
73693;SDS011;61997;53.974;11.670;2023-10-13T07:15:38;3.92;;;2.13;;
73693;SDS011;61997;53.974;11.670;2023-10-13T07:18:10;4.53;;;2.25;;
73693;SDS011;61997;53.974;11.670;2023-10-13T07:20:40;6.03;;;2.38;;
73693;SDS011;61997;53.974;11.670;2023-10-13T07:25:37;4.97;;;2.40;;
73693;SDS011;61997;53.974;11.670;2023-10-13T07:28:03;4.80;;;2.40;;
73693;SDS011;61997;53.974;11.670;2023-10-13T07:30:29;3.78;;;2.22;;
73693;SDS011;61997;53.974;11.670;2023-10-13T07:33:07;4.10;;;2.03;;
73693;SDS011;61997;53.974;11.670;2023-10-13T07:35:35;3.08;;;2.08;;
73693;SDS011;61997;53.974;11.670;2023-10-13T07:38:02;4.88;;;2.53;;
73693;SDS011;61997;53.974;11.670;2023-10-13T07:40:32;4.00;;;2.20;;
73693;SDS011;61997;53.974;11.670;2023-10-13T07:43:01;3.53;;;2.30;;
73693;SDS011;61997;53.974;11.670;2023-10-13T07:45:28;4.20;;;2.10;;
73693;SDS011;61997;53.974;11.670;2023-10-13T07:50:37;3.65;;;2.22;;
73693;SDS011;61997;53.974;11.670;2023-10-13T07:53:06;3.95;;;2.20;;
73693;SDS011;61997;53.974;11.670;2023-10-13T07:55:45;4.18;;;2.53;;
73693;SDS011;61997;53.974;11.670;2023-10-13T07:58:12;4.03;;;2.20;;
73693;SDS011;61997;53.974;11.670;2023-10-13T08:00:38;4.45;;;2.30;;
73693;SDS011;61997;53.974;11.670;2023-10-13T08:03:10;4.80;;;2.60;;
73693;SDS011;61997;53.974;11.670;2023-10-13T08:05:38;3.65;;;2.10;;
73693;SDS011;61997;53.974;11.670;2023-10-13T08:08:22;3.88;;;2.10;;
73693;SDS011;61997;53.974;11.670;2023-10-13T08:10:50;3.30;;;2.00;;
73693;SDS011;61997;53.974;11.670;2023-10-13T08:13:20;3.70;;;2.20;;
73693;SDS011;61997;53.974;11.670;2023-10-13T08:15:47;3.30;;;1.88;;
73693;SDS011;61997;53.974;11.670;2023-10-13T08:18:15;3.47;;;2.17;;
73693;SDS011;61997;53.974;11.670;2023-10-13T08:21:02;4.03;;;2.30;;
73693;SDS011;61997;53.974;11.670;2023-10-13T08:23:29;3.97;;;2.17;;
73693;SDS011;61997;53.974;11.670;2023-10-13T08:26:15;3.97;;;1.75;;
73693;SDS011;61997;53.974;11.670;2023-10-13T08:28:59;3.90;;;2.05;;
73693;SDS011;61997;53.974;11.670;2023-10-13T08:31:43;3.15;;;1.77;;
73693;SDS011;61997;53.974;11.670;2023-10-13T08:34:15;4.13;;;2.03;;
73693;SDS011;61997;53.974;11.670;2023-10-13T08:36:48;3.97;;;1.75;;
73693;SDS011;61997;53.974;11.670;2023-10-13T08:39:14;4.25;;;2.30;;
73693;SDS011;61997;53.974;11.670;2023-10-13T08:42:06;4.32;;;2.30;;
73693;SDS011;61997;53.974;11.670;2023-10-13T08:44:44;3.53;;;2.00;;
73693;SDS011;61997;53.974;11.670;2023-10-13T08:47:17;3.75;;;2.05;;
73693;SDS011;61997;53.974;11.670;2023-10-13T08:49:50;4.60;;;1.98;;
73693;SDS011;61997;53.974;11.670;2023-10-13T08:52:35;4.10;;;1.90;;
73693;SDS011;61997;53.974;11.670;2023-10-13T08:55:11;5.38;;;2.47;;
73693;SDS011;61997;53.974;11.670;2023-10-13T08:57:57;4.55;;;2.22;;
73693;SDS011;61997;53.974;11.670;2023-10-13T09:00:29;3.08;;;1.70;;
73693;SDS011;61997;53.974;11.670;2023-10-13T09:03:12;5.13;;;2.05;;
73693;SDS011;61997;53.974;11.670;2023-10-13T09:05:47;3.90;;;2.20;;
73693;SDS011;61997;53.974;11.670;2023-10-13T09:08:26;3.63;;;1.90;;
73693;SDS011;61997;53.974;11.670;2023-10-13T09:11:00;3.13;;;1.65;;
73693;SDS011;61997;53.974;11.670;2023-10-13T09:13:39;3.83;;;2.10;;
73693;SDS011;61997;53.974;11.670;2023-10-13T09:16:14;3.70;;;1.80;;
73693;SDS011;61997;53.974;11.670;2023-10-13T09:19:02;3.92;;;2.00;;
73693;SDS011;61997;53.974;11.670;2023-10-13T09:21:40;3.78;;;1.90;;
73693;SDS011;61997;53.974;11.670;2023-10-13T09:24:10;3.58;;;1.80;;
73693;SDS011;61997;53.974;11.670;2023-10-13T09:26:58;3.53;;;1.85;;
73693;SDS011;61997;53.974;11.670;2023-10-13T09:29:26;2.95;;;2.00;;
73693;SDS011;61997;53.974;11.670;2023-10-13T09:31:58;4.35;;;1.80;;
73693;SDS011;61997;53.974;11.670;2023-10-13T09:34:27;3.65;;;2.05;;
73693;SDS011;61997;53.974;11.670;2023-10-13T09:37:00;4.18;;;1.80;;
73693;SDS011;61997;53.974;11.670;2023-10-13T09:39:28;3.63;;;2.20;;
73693;SDS011;61997;53.974;11.670;2023-10-13T09:42:02;3.58;;;1.98;;
73693;SDS011;61997;53.974;11.670;2023-10-13T09:44:28;3.33;;;1.83;;
73693;SDS011;61997;53.974;11.670;2023-10-13T09:47:03;3.35;;;2.00;;
73693;SDS011;61997;53.974;11.670;2023-10-13T09:49:43;2.45;;;1.70;;
73693;SDS011;61997;53.974;11.670;2023-10-13T09:52:24;3.33;;;1.83;;
73693;SDS011;61997;53.974;11.670;2023-10-13T09:57:24;3.90;;;2.20;;
73693;SDS011;61997;53.974;11.670;2023-10-13T10:00:00;2.70;;;1.80;;
73693;SDS011;61997;53.974;11.670;2023-10-13T10:02:34;3.03;;;1.90;;
73693;SDS011;61997;53.974;11.670;2023-10-13T10:05:00;4.07;;;2.13;;
73693;SDS011;61997;53.974;11.670;2023-10-13T10:07:53;3.75;;;2.30;;
73693;SDS011;61997;53.974;11.670;2023-10-13T10:10:21;3.70;;;2.05;;
73693;SDS011;61997;53.974;11.670;2023-10-13T10:12:59;3.40;;;2.40;;
73693;SDS011;61997;53.974;11.670;2023-10-13T10:15:32;3.55;;;1.67;;
73693;SDS011;61997;53.974;11.670;2023-10-13T10:18:03;2.53;;;1.70;;
73693;SDS011;61997;53.974;11.670;2023-10-13T10:20:29;4.35;;;1.90;;
73693;SDS011;61997;53.974;11.670;2023-10-13T10:23:07;4.60;;;1.83;;
73693;SDS011;61997;53.974;11.670;2023-10-13T10:25:37;3.65;;;1.88;;
73693;SDS011;61997;53.974;11.670;2023-10-13T10:28:05;4.07;;;2.05;;
73693;SDS011;61997;53.974;11.670;2023-10-13T10:30:31;3.25;;;1.83;;
73693;SDS011;61997;53.974;11.670;2023-10-13T10:32:59;2.75;;;2.05;;
73693;SDS011;61997;53.974;11.670;2023-10-13T10:35:26;3.33;;;1.70;;
73693;SDS011;61997;53.974;11.670;2023-10-13T10:38:17;3.92;;;1.90;;
73693;SDS011;61997;53.974;11.670;2023-10-13T10:40:58;3.50;;;1.58;;
73693;SDS011;61997;53.974;11.670;2023-10-13T10:46:26;3.33;;;1.80;;
73693;SDS011;61997;53.974;11.670;2023-10-13T10:48:52;3.80;;;1.88;;
73693;SDS011;61997;53.974;11.670;2023-10-13T10:51:27;2.55;;;1.60;;
73693;SDS011;61997;53.974;11.670;2023-10-13T10:53:57;3.83;;;2.10;;
73693;SDS011;61997;53.974;11.670;2023-10-13T10:56:26;3.05;;;2.05;;
73693;SDS011;61997;53.974;11.670;2023-10-13T10:59:02;3.83;;;1.85;;
73693;SDS011;61997;53.974;11.670;2023-10-13T11:01:29;4.70;;;1.70;;
73693;SDS011;61997;53.974;11.670;2023-10-13T11:04:06;3.25;;;2.00;;
73693;SDS011;61997;53.974;11.670;2023-10-13T11:09:25;3.67;;;1.60;;
73693;SDS011;61997;53.974;11.670;2023-10-13T11:11:51;2.42;;;1.60;;
73693;SDS011;61997;53.974;11.670;2023-10-13T11:14:25;3.45;;;1.90;;
73693;SDS011;61997;53.974;11.670;2023-10-13T11:16:52;3.45;;;1.70;;
73693;SDS011;61997;53.974;11.670;2023-10-13T11:19:41;4.72;;;2.20;;
73693;SDS011;61997;53.974;11.670;2023-10-13T11:25:00;2.70;;;1.77;;
73693;SDS011;61997;53.974;11.670;2023-10-13T11:27:40;3.65;;;1.83;;
73693;SDS011;61997;53.974;11.670;2023-10-13T11:30:20;3.97;;;1.80;;
73693;SDS011;61997;53.974;11.670;2023-10-13T11:33:03;3.40;;;1.95;;
73693;SDS011;61997;53.974;11.670;2023-10-13T11:35:33;3.45;;;1.88;;
73693;SDS011;61997;53.974;11.670;2023-10-13T11:38:30;2.92;;;1.77;;
73693;SDS011;61997;53.974;11.670;2023-10-13T11:41:05;2.45;;;1.60;;
73693;SDS011;61997;53.974;11.670;2023-10-13T11:43:44;2.95;;;1.83;;
73693;SDS011;61997;53.974;11.670;2023-10-13T11:46:26;2.72;;;1.90;;
73693;SDS011;61997;53.974;11.670;2023-10-13T11:49:02;3.00;;;1.83;;
73693;SDS011;61997;53.974;11.670;2023-10-13T11:51:42;3.13;;;1.60;;
73693;SDS011;61997;53.974;11.670;2023-10-13T11:54:14;3.55;;;2.03;;
73693;SDS011;61997;53.974;11.670;2023-10-13T11:56:43;3.67;;;1.77;;
73693;SDS011;61997;53.974;11.670;2023-10-13T11:59:12;3.30;;;1.83;;
73693;SDS011;61997;53.974;11.670;2023-10-13T12:01:49;3.35;;;2.20;;
73693;SDS011;61997;53.974;11.670;2023-10-13T12:04:34;2.60;;;1.55;;
73693;SDS011;61997;53.974;11.670;2023-10-13T12:07:17;3.83;;;1.83;;
73693;SDS011;61997;53.974;11.670;2023-10-13T12:09:49;3.92;;;1.67;;
73693;SDS011;61997;53.974;11.670;2023-10-13T12:12:18;3.95;;;2.22;;
73693;SDS011;61997;53.974;11.670;2023-10-13T12:14:43;3.22;;;2.03;;
73693;SDS011;61997;53.974;11.670;2023-10-13T12:17:21;4.35;;;2.55;;
73693;SDS011;61997;53.974;11.670;2023-10-13T12:19:54;4.68;;;2.70;;
73693;SDS011;61997;53.974;11.670;2023-10-13T12:22:20;5.43;;;3.17;;
73693;SDS011;61997;53.974;11.670;2023-10-13T12:25:01;5.90;;;3.05;;
73693;SDS011;61997;53.974;11.670;2023-10-13T12:27:30;6.43;;;4.10;;
73693;SDS011;61997;53.974;11.670;2023-10-13T12:30:11;6.32;;;3.08;;
73693;SDS011;61997;53.974;11.670;2023-10-13T12:32:39;6.97;;;3.70;;
73693;SDS011;61997;53.974;11.670;2023-10-13T12:35:18;5.78;;;4.00;;
73693;SDS011;61997;53.974;11.670;2023-10-13T12:38:00;5.65;;;3.78;;
73693;SDS011;61997;53.974;11.670;2023-10-13T12:40:41;5.72;;;3.95;;
73693;SDS011;61997;53.974;11.670;2023-10-13T12:43:25;8.23;;;4.05;;
73693;SDS011;61997;53.974;11.670;2023-10-13T12:46:09;7.07;;;4.10;;
73693;SDS011;61997;53.974;11.670;2023-10-13T12:48:53;6.90;;;4.15;;
73693;SDS011;61997;53.974;11.670;2023-10-13T12:51:29;7.05;;;4.50;;
73693;SDS011;61997;53.974;11.670;2023-10-13T12:53:57;7.80;;;4.43;;
73693;SDS011;61997;53.974;11.670;2023-10-13T12:56:42;7.13;;;4.57;;
73693;SDS011;61997;53.974;11.670;2023-10-13T12:59:10;7.60;;;4.45;;
73693;SDS011;61997;53.974;11.670;2023-10-13T13:01:38;8.95;;;4.95;;
73693;SDS011;61997;53.974;11.670;2023-10-13T13:04:07;8.38;;;4.75;;
73693;SDS011;61997;53.974;11.670;2023-10-13T13:06:36;7.00;;;4.47;;
73693;SDS011;61997;53.974;11.670;2023-10-13T13:09:02;8.30;;;4.88;;
73693;SDS011;61997;53.974;11.670;2023-10-13T13:11:28;7.32;;;4.90;;
73693;SDS011;61997;53.974;11.670;2023-10-13T13:13:56;7.90;;;4.68;;
73693;SDS011;61997;53.974;11.670;2023-10-13T13:16:22;6.90;;;4.80;;
73693;SDS011;61997;53.974;11.670;2023-10-13T13:18:50;9.52;;;5.50;;
73693;SDS011;61997;53.974;11.670;2023-10-13T13:21:16;10.15;;;5.05;;
73693;SDS011;61997;53.974;11.670;2023-10-13T13:23:50;7.75;;;4.82;;
73693;SDS011;61997;53.974;11.670;2023-10-13T13:26:16;7.82;;;4.60;;
73693;SDS011;61997;53.974;11.670;2023-10-13T13:28:42;8.95;;;5.13;;
73693;SDS011;61997;53.974;11.670;2023-10-13T13:31:08;7.43;;;4.57;;
73693;SDS011;61997;53.974;11.670;2023-10-13T13:33:34;7.40;;;5.10;;
73693;SDS011;61997;53.974;11.670;2023-10-13T13:36:06;7.30;;;4.78;;
73693;SDS011;61997;53.974;11.670;2023-10-13T13:38:32;6.45;;;4.63;;
73693;SDS011;61997;53.974;11.670;2023-10-13T13:40:58;7.47;;;4.95;;
73693;SDS011;61997;53.974;11.670;2023-10-13T13:43:34;9.82;;;4.97;;
73693;SDS011;61997;53.974;11.670;2023-10-13T13:46:05;8.95;;;4.57;;
73693;SDS011;61997;53.974;11.670;2023-10-13T13:48:36;8.70;;;4.45;;
73693;SDS011;61997;53.974;11.670;2023-10-13T13:51:06;7.10;;;4.78;;
73693;SDS011;61997;53.974;11.670;2023-10-13T13:53:39;7.95;;;4.63;;
73693;SDS011;61997;53.974;11.670;2023-10-13T13:56:10;8.57;;;4.72;;
73693;SDS011;61997;53.974;11.670;2023-10-13T13:58:51;9.90;;;5.93;;
73693;SDS011;61997;53.974;11.670;2023-10-13T14:01:17;8.00;;;4.65;;
73693;SDS011;61997;53.974;11.670;2023-10-13T14:03:52;7.57;;;4.25;;
73693;SDS011;61997;53.974;11.670;2023-10-13T14:06:21;8.18;;;5.07;;
73693;SDS011;61997;53.974;11.670;2023-10-13T14:08:56;10.00;;;4.82;;
73693;SDS011;61997;53.974;11.670;2023-10-13T14:11:40;5.72;;;4.05;;
73693;SDS011;61997;53.974;11.670;2023-10-13T14:14:06;7.72;;;4.35;;
73693;SDS011;61997;53.974;11.670;2023-10-13T14:16:53;8.38;;;4.40;;
73693;SDS011;61997;53.974;11.670;2023-10-13T14:19:27;8.18;;;4.40;;
73693;SDS011;61997;53.974;11.670;2023-10-13T14:21:56;7.80;;;4.20;;
73693;SDS011;61997;53.974;11.670;2023-10-13T14:24:22;6.35;;;4.68;;
73693;SDS011;61997;53.974;11.670;2023-10-13T14:26:55;6.57;;;3.95;;
73693;SDS011;61997;53.974;11.670;2023-10-13T14:29:22;6.45;;;4.20;;
73693;SDS011;61997;53.974;11.670;2023-10-13T14:31:51;7.60;;;4.30;;
73693;SDS011;61997;53.974;11.670;2023-10-13T14:34:16;7.20;;;4.18;;
73693;SDS011;61997;53.974;11.670;2023-10-13T14:36:42;5.70;;;3.75;;
73693;SDS011;61997;53.974;11.670;2023-10-13T14:39:13;6.30;;;4.40;;
73693;SDS011;61997;53.974;11.670;2023-10-13T14:41:39;8.45;;;4.68;;
73693;SDS011;61997;53.974;11.670;2023-10-13T14:44:05;7.65;;;4.07;;
73693;SDS011;61997;53.974;11.670;2023-10-13T14:46:30;7.38;;;4.35;;
73693;SDS011;61997;53.974;11.670;2023-10-13T14:48:56;6.85;;;4.05;;
73693;SDS011;61997;53.974;11.670;2023-10-13T14:51:21;8.10;;;4.75;;
73693;SDS011;61997;53.974;11.670;2023-10-13T14:53:47;7.40;;;4.65;;
73693;SDS011;61997;53.974;11.670;2023-10-13T14:56:13;8.05;;;4.43;;
73693;SDS011;61997;53.974;11.670;2023-10-13T14:58:40;7.13;;;4.30;;
73693;SDS011;61997;53.974;11.670;2023-10-13T15:03:43;8.45;;;4.22;;
73693;SDS011;61997;53.974;11.670;2023-10-13T15:08:45;7.53;;;3.90;;
73693;SDS011;61997;53.974;11.670;2023-10-13T15:11:11;6.80;;;3.58;;
73693;SDS011;61997;53.974;11.670;2023-10-13T15:13:38;5.18;;;4.15;;
73693;SDS011;61997;53.974;11.670;2023-10-13T15:18:45;7.13;;;4.07;;
73693;SDS011;61997;53.974;11.670;2023-10-13T15:21:11;5.43;;;3.70;;
73693;SDS011;61997;53.974;11.670;2023-10-13T15:23:43;6.45;;;3.60;;
73693;SDS011;61997;53.974;11.670;2023-10-13T15:26:09;7.15;;;4.00;;
73693;SDS011;61997;53.974;11.670;2023-10-13T15:28:35;7.85;;;4.20;;
73693;SDS011;61997;53.974;11.670;2023-10-13T15:31:10;6.22;;;3.72;;
73693;SDS011;61997;53.974;11.670;2023-10-13T15:33:49;4.57;;;3.08;;
73693;SDS011;61997;53.974;11.670;2023-10-13T15:36:17;5.25;;;3.50;;